createdAt,value
2022-10-23T00:00:25.081Z,26.58
2022-10-23T00:02:55.912Z,25.95
2022-10-23T00:05:26.519Z,32.17
2022-10-23T00:07:57.725Z,25.38
2022-10-23T00:10:28.479Z,25.75
2022-10-23T00:12:58.625Z,25.15
2022-10-23T00:15:29.010Z,24.00
2022-10-23T00:17:59.631Z,23.52
2022-10-23T00:20:30.183Z,23.15
2022-10-23T00:23:00.386Z,24.77
2022-10-23T00:25:31.332Z,22.88
2022-10-23T00:28:02.169Z,23.05
2022-10-23T00:30:32.706Z,24.83
2022-10-23T00:33:03.137Z,24.50
2022-10-23T00:35:34.020Z,24.00
2022-10-23T00:38:04.722Z,26.63
2022-10-23T00:40:34.890Z,25.85
2022-10-23T00:43:05.120Z,27.40
2022-10-23T00:45:36.233Z,26.98
2022-10-23T00:48:07.864Z,25.15
2022-10-23T00:50:38.266Z,25.63
2022-10-23T00:53:08.403Z,26.85
2022-10-23T00:55:40.368Z,30.30
2022-10-23T00:58:10.423Z,24.40
2022-10-23T01:00:45.685Z,23.23
2022-10-23T01:03:17.450Z,22.25
2022-10-23T01:06:07.570Z,22.27
2022-10-23T01:08:47.376Z,22.02
2022-10-23T01:11:24.852Z,21.23
2022-10-23T01:14:05.993Z,22.00
2022-10-23T01:16:42.233Z,22.27
2022-10-23T01:19:32.231Z,23.60
2022-10-23T01:22:21.937Z,21.90
2022-10-23T01:25:12.178Z,22.45
2022-10-23T01:27:43.795Z,21.45
2022-10-23T01:30:18.551Z,24.23
2022-10-23T01:32:58.447Z,24.23
2022-10-23T01:35:32.493Z,32.78
2022-10-23T01:38:13.171Z,31.42
2022-10-23T01:41:04.481Z,20.80
2022-10-23T01:43:39.054Z,20.33
2022-10-23T01:46:11.428Z,23.05
2022-10-23T01:48:43.915Z,23.25
2022-10-23T01:51:16.107Z,24.83
2022-10-23T01:53:48.145Z,22.33
2022-10-23T01:56:21.347Z,18.17
2022-10-23T01:58:53.228Z,18.52
2022-10-23T02:01:26.638Z,18.00
2022-10-23T02:06:29.650Z,17.35
2022-10-23T02:09:00.441Z,17.83
2022-10-23T02:11:31.024Z,17.23
2022-10-23T02:14:12.896Z,17.58
2022-10-23T02:16:50.750Z,17.48
2022-10-23T02:19:36.663Z,25.73
2022-10-23T02:22:31.574Z,16.55
2022-10-23T02:25:21.493Z,16.85
2022-10-23T02:27:56.419Z,28.40
2022-10-23T02:30:33.597Z,18.13
2022-10-23T02:33:13.137Z,17.02
2022-10-23T02:35:44.410Z,17.23
2022-10-23T02:38:42.788Z,16.77
2022-10-23T02:41:33.684Z,16.83
2022-10-23T02:44:07.922Z,17.30
2022-10-23T02:46:58.136Z,28.60
2022-10-23T02:49:49.682Z,22.30
2022-10-23T02:52:36.792Z,18.17
2022-10-23T02:55:26.815Z,17.55
2022-10-23T02:57:59.425Z,18.65
2022-10-23T03:00:31.850Z,17.48
2022-10-23T03:03:12.978Z,18.08
2022-10-23T03:05:46.410Z,16.77
2022-10-23T03:08:18.343Z,17.95
2022-10-23T03:13:26.318Z,18.58
2022-10-23T03:15:56.613Z,24.17
2022-10-23T03:18:29.832Z,23.75
2022-10-23T03:21:02.509Z,25.00
2022-10-23T03:23:36.381Z,18.75
2022-10-23T03:26:07.387Z,18.85
2022-10-23T03:28:43.585Z,17.63
2022-10-23T03:31:13.920Z,18.35
2022-10-23T03:33:44.380Z,16.40
2022-10-23T03:36:15.901Z,15.50
2022-10-23T03:38:47.275Z,16.27
2022-10-23T03:41:18.203Z,15.52
2022-10-23T03:43:48.820Z,15.50
2022-10-23T03:46:19.409Z,18.98
2022-10-23T03:48:53.670Z,16.85
2022-10-23T03:51:24.130Z,16.63
2022-10-23T03:53:54.302Z,17.25
2022-10-23T03:56:24.720Z,17.08
2022-10-23T03:58:55.294Z,17.38
2022-10-23T04:01:28.771Z,17.50
2022-10-23T04:03:59.018Z,16.25
2022-10-23T04:06:30.849Z,16.50
2022-10-23T04:09:01.998Z,30.15
2022-10-23T04:11:32.580Z,29.52
2022-10-23T04:14:02.951Z,26.88
2022-10-23T04:16:33.574Z,17.20
2022-10-23T04:19:04.059Z,16.92
2022-10-23T04:21:34.471Z,16.30
2022-10-23T04:24:05.283Z,21.65
2022-10-23T04:26:35.675Z,17.25
2022-10-23T04:29:06.571Z,17.02
2022-10-23T04:31:37.109Z,17.13
2022-10-23T04:34:07.979Z,17.17
2022-10-23T04:36:39.297Z,18.10
2022-10-23T04:39:14.325Z,16.75
2022-10-23T04:41:44.542Z,18.05
2022-10-23T04:44:15.363Z,17.63
2022-10-23T04:46:45.882Z,16.67
2022-10-23T04:49:16.551Z,17.67
2022-10-23T04:52:06.402Z,16.45
2022-10-23T04:54:56.638Z,16.08
2022-10-23T04:57:41.871Z,16.63
2022-10-23T05:00:15.779Z,18.50
2022-10-23T05:02:57.847Z,15.80
2022-10-23T05:05:35.063Z,17.42
2022-10-23T05:08:12.261Z,17.70
2022-10-23T05:10:56.144Z,17.50
2022-10-23T05:13:27.218Z,22.70
2022-10-23T05:15:57.403Z,22.45
2022-10-23T05:18:29.449Z,23.67
2022-10-23T05:21:02.421Z,16.17
2022-10-23T05:23:33.408Z,17.17
2022-10-23T05:26:06.385Z,18.13
2022-10-23T05:28:38.735Z,17.58
2022-10-23T05:31:11.851Z,17.75
2022-10-23T05:33:44.448Z,17.95
2022-10-23T05:36:16.632Z,17.98
2022-10-23T05:38:49.085Z,17.75
2022-10-23T05:41:21.421Z,17.38
2022-10-23T05:43:51.737Z,18.42
2022-10-23T05:46:45.046Z,17.33
2022-10-23T05:49:21.697Z,17.23
2022-10-23T05:52:13.526Z,17.33
2022-10-23T05:54:54.303Z,16.67
2022-10-23T05:57:40.604Z,16.23
2022-10-23T06:00:13.993Z,17.42
2022-10-23T06:02:44.555Z,18.13
2022-10-23T06:05:28.161Z,16.73
2022-10-23T06:08:18.723Z,18.25
2022-10-23T06:10:52.108Z,17.83
2022-10-23T06:13:22.663Z,17.02
2022-10-23T06:15:53.579Z,17.50
2022-10-23T06:18:28.068Z,16.75
2022-10-23T06:21:03.830Z,17.45
2022-10-23T06:23:35.257Z,17.60
2022-10-23T06:26:25.784Z,16.92
2022-10-23T06:29:01.360Z,16.13
2022-10-23T06:31:32.461Z,16.40
2022-10-23T06:34:03.406Z,16.25
2022-10-23T06:36:34.912Z,16.90
2022-10-23T06:39:17.330Z,16.98
2022-10-23T06:42:07.495Z,17.10
2022-10-23T06:44:57.155Z,15.65
2022-10-23T06:47:47.252Z,16.98
2022-10-23T06:50:39.140Z,16.30
2022-10-23T06:53:15.777Z,17.05
2022-10-23T06:55:54.579Z,17.08
2022-10-23T06:58:27.375Z,17.55
2022-10-23T07:01:06.019Z,17.98
2022-10-23T07:03:36.478Z,17.55
2022-10-23T07:06:10.823Z,17.25
2022-10-23T07:08:41.504Z,17.25
2022-10-23T07:11:30.915Z,17.65
2022-10-23T07:14:01.808Z,17.45
2022-10-23T07:16:33.483Z,16.83
2022-10-23T07:19:03.928Z,17.58
2022-10-23T07:21:54.143Z,16.80
2022-10-23T07:24:43.967Z,16.52
2022-10-23T07:27:23.337Z,17.92
2022-10-23T07:29:59.445Z,18.02
2022-10-23T07:32:33.538Z,17.33
2022-10-23T07:35:23.762Z,16.73
2022-10-23T07:38:05.210Z,17.08
2022-10-23T07:40:39.520Z,16.23
2022-10-23T07:43:12.250Z,16.73
2022-10-23T07:45:42.826Z,16.13
2022-10-23T07:48:22.524Z,16.67
2022-10-23T07:51:04.529Z,17.60
2022-10-23T07:53:34.662Z,17.48
2022-10-23T07:56:19.823Z,17.42
2022-10-23T07:59:13.076Z,17.77
2022-10-23T08:01:50.491Z,18.40
2022-10-23T08:04:23.550Z,18.15
2022-10-23T08:07:02.677Z,17.75
2022-10-23T08:09:40.103Z,18.58
2022-10-23T08:12:12.039Z,16.90
2022-10-23T08:14:42.915Z,18.40
2022-10-23T08:17:14.391Z,18.17
2022-10-23T08:20:02.088Z,18.15
2022-10-23T08:22:40.437Z,17.50
2022-10-23T08:25:12.209Z,17.83
2022-10-23T08:27:43.357Z,18.75
2022-10-23T08:30:14.098Z,17.10
2022-10-23T08:32:46.007Z,19.23
2022-10-23T08:35:17.116Z,17.95
2022-10-23T08:37:47.837Z,18.73
2022-10-23T08:40:24.606Z,18.42
2022-10-23T08:43:21.851Z,17.83
2022-10-23T08:46:09.493Z,20.05
2022-10-23T08:49:06.162Z,17.33
2022-10-23T08:51:49.509Z,18.65
2022-10-23T08:54:29.285Z,18.08
2022-10-23T08:57:11.960Z,16.73
2022-10-23T09:00:01.950Z,16.90
2022-10-23T09:02:41.471Z,18.30
2022-10-23T09:05:18.665Z,17.27
2022-10-23T09:08:01.431Z,18.23
2022-10-23T09:10:51.702Z,17.33
2022-10-23T09:13:41.960Z,18.02
2022-10-23T09:16:31.858Z,18.30
2022-10-23T09:19:02.398Z,16.20
2022-10-23T09:21:32.847Z,17.30
2022-10-23T09:24:03.642Z,18.85
2022-10-23T09:26:34.145Z,17.80
2022-10-23T09:29:26.484Z,19.17
2022-10-23T09:32:00.371Z,18.00
2022-10-23T09:34:33.580Z,19.33
2022-10-23T09:37:25.050Z,18.38
2022-10-23T09:40:18.776Z,17.80
2022-10-23T09:42:55.802Z,17.77
2022-10-23T09:45:34.314Z,18.58
2022-10-23T09:48:21.099Z,18.33
2022-10-23T09:51:21.447Z,18.35
2022-10-23T09:54:15.562Z,19.20
2022-10-23T09:56:51.049Z,18.23
2022-10-23T09:59:31.963Z,19.63
2022-10-23T10:02:07.662Z,18.35
2022-10-23T10:04:57.779Z,18.88
2022-10-23T10:07:34.711Z,21.27
2022-10-23T10:10:15.656Z,20.42
2022-10-23T10:12:53.428Z,22.17
2022-10-23T10:15:52.257Z,22.27
2022-10-23T10:18:30.468Z,22.17
2022-10-23T10:21:23.011Z,25.70
2022-10-23T10:24:05.065Z,23.88
2022-10-23T10:27:00.539Z,27.17
2022-10-23T10:30:08.471Z,38.83
2022-10-23T10:33:02.525Z,96.10
2022-10-23T10:36:09.763Z,210.32
2022-10-23T10:39:01.825Z,178.88
2022-10-23T10:42:06.299Z,138.60
2022-10-23T10:45:06.375Z,124.45
2022-10-23T10:47:59.448Z,117.13
2022-10-23T10:51:04.897Z,121.65
2022-10-23T10:54:11.821Z,122.65
2022-10-23T10:56:45.979Z,112.60
2022-10-23T10:59:39.202Z,109.18
2022-10-23T11:02:49.904Z,84.80
2022-10-23T11:05:43.479Z,76.93
2022-10-23T11:08:56.169Z,69.75
2022-10-23T11:11:48.902Z,57.97
2022-10-23T11:14:29.367Z,56.65
2022-10-23T11:17:26.624Z,84.07
2022-10-23T11:20:36.428Z,60.97
2022-10-23T11:23:45.706Z,44.97
2022-10-23T11:26:55.470Z,42.25
2022-10-23T11:29:55.053Z,46.30
2022-10-23T11:33:04.498Z,52.15
2022-10-23T11:36:03.366Z,53.72
2022-10-23T11:38:41.659Z,47.97
2022-10-23T11:41:27.056Z,46.20
2022-10-23T11:44:07.852Z,45.88
2022-10-23T11:46:40.512Z,45.72
2022-10-23T11:49:22.983Z,48.15
2022-10-23T11:52:04.386Z,52.75
2022-10-23T11:54:34.893Z,52.88
2022-10-23T11:57:17.267Z,52.40
2022-10-23T11:59:57.288Z,51.28
2022-10-23T12:02:39.484Z,42.80
2022-10-23T12:05:30.038Z,43.42
2022-10-23T12:08:04.569Z,43.90
2022-10-23T12:10:48.314Z,46.90
2022-10-23T12:13:56.457Z,48.47
2022-10-23T12:16:37.878Z,47.20
2022-10-23T12:19:22.976Z,46.47
2022-10-23T12:22:00.401Z,46.55
2022-10-23T12:25:00.701Z,49.17
2022-10-23T12:27:54.624Z,77.65
2022-10-23T12:30:42.048Z,368.55
2022-10-23T12:33:43.198Z,65.68
2022-10-23T12:36:44.805Z,58.03
2022-10-23T12:39:38.864Z,55.42
2022-10-23T12:42:23.338Z,53.38
2022-10-23T12:45:07.825Z,52.63
2022-10-23T12:50:27.359Z,52.72
2022-10-23T12:53:03.472Z,51.97
2022-10-23T12:58:36.694Z,54.75
2022-10-23T13:01:10.400Z,58.80
2022-10-23T13:03:42.433Z,60.30
2022-10-23T13:06:13.318Z,54.10
2022-10-23T13:08:47.919Z,57.20
2022-10-23T13:11:38.425Z,59.55
2022-10-23T13:14:16.586Z,57.30
2022-10-23T13:16:47.958Z,52.65
2022-10-23T13:19:28.855Z,54.55
2022-10-23T13:22:00.540Z,52.95
2022-10-23T13:24:32.525Z,54.58
2022-10-23T13:27:03.276Z,55.20
2022-10-23T13:29:36.433Z,53.30
2022-10-23T13:32:14.598Z,55.75
2022-10-23T13:35:10.268Z,56.03
2022-10-23T13:37:47.487Z,56.83
2022-10-23T13:40:30.146Z,61.75
2022-10-23T13:43:00.910Z,75.60
2022-10-23T13:45:30.956Z,117.78
2022-10-23T13:48:01.501Z,68.43
2022-10-23T13:50:32.683Z,69.47
2022-10-23T13:53:03.060Z,69.65
2022-10-23T13:55:34.994Z,66.07
2022-10-23T13:58:05.509Z,67.22
2022-10-23T14:00:36.201Z,68.70
2022-10-23T14:03:06.991Z,69.68
2022-10-23T14:05:37.634Z,70.75
2022-10-23T14:08:08.700Z,67.97
2022-10-23T14:10:39.386Z,64.72
2022-10-23T14:13:09.807Z,68.90
2022-10-23T14:15:40.312Z,70.15
2022-10-23T14:18:11.644Z,67.15
2022-10-23T14:20:42.022Z,67.57
2022-10-23T14:23:12.686Z,69.22
2022-10-23T14:25:43.121Z,71.53
2022-10-23T14:28:14.021Z,70.65
2022-10-23T14:30:45.734Z,67.60
2022-10-23T14:33:18.983Z,64.65
2022-10-23T14:35:53.247Z,65.80
2022-10-23T14:38:23.945Z,64.47
2022-10-23T14:40:54.917Z,66.53
2022-10-23T14:43:26.830Z,64.80
2022-10-23T14:45:57.425Z,69.28
2022-10-23T14:48:28.779Z,64.43
2022-10-23T14:51:01.734Z,63.05
2022-10-23T14:53:32.338Z,62.35
2022-10-23T14:56:07.219Z,59.10
2022-10-23T14:58:37.713Z,57.20
2022-10-23T15:01:08.444Z,54.63
2022-10-23T15:03:39.132Z,52.30
2022-10-23T15:06:16.080Z,48.55
2022-10-23T15:08:52.888Z,49.65
2022-10-23T15:11:24.462Z,50.42
2022-10-23T15:13:56.229Z,48.92
2022-10-23T15:16:27.375Z,48.60
2022-10-23T15:18:57.873Z,48.30
2022-10-23T15:21:28.577Z,47.78
2022-10-23T15:23:59.649Z,56.97
2022-10-23T15:26:30.688Z,50.95
2022-10-23T15:29:03.703Z,53.38
2022-10-23T15:31:45.112Z,55.50
2022-10-23T15:34:21.517Z,56.55
2022-10-23T15:36:54.695Z,55.80
2022-10-23T15:39:29.578Z,50.85
2022-10-23T15:42:00.019Z,53.15
2022-10-23T15:44:33.202Z,51.67
2022-10-23T15:47:04.193Z,55.45
2022-10-23T15:49:34.843Z,54.58
2022-10-23T15:52:06.454Z,53.85
2022-10-23T15:54:38.575Z,57.35
2022-10-23T15:57:09.428Z,59.30
2022-10-23T15:59:39.959Z,55.38
2022-10-23T16:02:11.654Z,52.40
2022-10-23T16:04:41.816Z,49.75
2022-10-23T16:07:12.171Z,48.70
2022-10-23T16:09:42.285Z,48.60
2022-10-23T16:12:12.691Z,47.00
2022-10-23T16:14:42.851Z,45.95
2022-10-23T16:17:17.326Z,45.40
2022-10-23T16:19:48.565Z,44.67
2022-10-23T16:22:19.114Z,43.53
2022-10-23T16:24:49.148Z,42.22
2022-10-23T16:27:19.693Z,41.45
2022-10-23T16:29:49.856Z,40.20
2022-10-23T16:32:19.880Z,37.85
2022-10-23T16:34:50.321Z,36.40
2022-10-23T16:37:23.076Z,35.03
2022-10-23T16:39:57.070Z,34.83
2022-10-23T16:42:47.028Z,34.67
2022-10-23T16:45:33.276Z,34.85
2022-10-23T16:48:08.394Z,33.42
2022-10-23T16:50:42.258Z,32.67
2022-10-23T16:53:13.160Z,32.85
2022-10-23T16:55:43.514Z,32.00
2022-10-23T16:58:14.634Z,33.15
2022-10-23T17:00:45.452Z,32.63
2022-10-23T17:03:16.215Z,30.92
2022-10-23T17:05:46.756Z,33.20
2022-10-23T17:08:17.504Z,32.80
2022-10-23T17:10:47.724Z,32.00
2022-10-23T17:13:20.867Z,31.67
2022-10-23T17:15:52.270Z,32.67
2022-10-23T17:18:22.268Z,31.58
2022-10-23T17:20:59.176Z,32.42
2022-10-23T17:23:31.018Z,32.75
2022-10-23T17:26:01.740Z,31.65
2022-10-23T17:28:33.394Z,31.55
2022-10-23T17:31:03.448Z,30.15
2022-10-23T17:33:36.466Z,28.33
2022-10-23T17:36:07.059Z,29.60
2022-10-23T17:38:40.886Z,29.67
2022-10-23T17:41:13.969Z,29.05
2022-10-23T17:43:46.159Z,29.30
2022-10-23T17:46:24.801Z,29.02
2022-10-23T17:48:55.268Z,28.52
2022-10-23T17:51:27.583Z,29.08
2022-10-23T17:54:01.909Z,30.10
2022-10-23T17:56:38.034Z,31.13
2022-10-23T17:59:12.361Z,29.42
2022-10-23T18:01:45.302Z,30.13
2022-10-23T18:04:15.919Z,29.05
2022-10-23T18:06:49.466Z,29.45
2022-10-23T18:09:19.812Z,30.77
2022-10-23T18:11:50.374Z,29.00
2022-10-23T18:14:22.369Z,29.90
2022-10-23T18:16:55.069Z,30.65
2022-10-23T18:19:24.864Z,31.45
2022-10-23T18:21:55.483Z,30.98
2022-10-23T18:24:27.975Z,31.40
2022-10-23T18:26:58.071Z,31.95
2022-10-23T18:29:28.567Z,32.95
2022-10-23T18:31:59.382Z,34.25
2022-10-23T18:34:30.231Z,33.10
2022-10-23T18:37:02.110Z,35.85
2022-10-23T18:39:32.271Z,34.08
2022-10-23T18:42:02.710Z,34.75
2022-10-23T18:44:33.549Z,33.63
2022-10-23T18:47:04.135Z,34.50
2022-10-23T18:49:34.315Z,35.90
2022-10-23T18:52:05.023Z,36.92
2022-10-23T18:54:36.993Z,34.38
2022-10-23T18:57:07.403Z,35.08
2022-10-23T18:59:37.504Z,34.67
2022-10-23T19:02:07.643Z,35.88
2022-10-23T19:04:38.129Z,35.70
2022-10-23T19:07:08.765Z,36.05
2022-10-23T19:09:38.637Z,35.90
2022-10-23T19:12:09.178Z,34.92
2022-10-23T19:14:40.804Z,34.90
2022-10-23T19:17:18.277Z,35.75
2022-10-23T19:19:53.767Z,34.65
2022-10-23T19:22:25.230Z,37.88
2022-10-23T19:25:00.389Z,35.53
2022-10-23T19:27:31.860Z,34.90
2022-10-23T19:30:05.097Z,36.45
2022-10-23T19:32:38.753Z,35.28
2022-10-23T19:35:10.124Z,36.92
2022-10-23T19:37:41.414Z,34.88
2022-10-23T19:40:12.959Z,35.78
2022-10-23T19:42:45.454Z,36.10
2022-10-23T19:45:18.020Z,37.17
2022-10-23T19:47:49.559Z,35.60
2022-10-23T19:50:19.942Z,36.80
2022-10-23T19:52:50.293Z,35.30
2022-10-23T19:55:21.086Z,35.40
2022-10-23T19:57:51.207Z,38.78
2022-10-23T20:00:22.047Z,38.53
2022-10-23T20:02:55.166Z,37.05
2022-10-23T20:05:26.216Z,38.35
2022-10-23T20:07:56.974Z,38.30
2022-10-23T20:10:27.636Z,38.83
2022-10-23T20:13:18.348Z,39.78
2022-10-23T20:15:49.419Z,38.63
2022-10-23T20:18:19.604Z,36.72
2022-10-23T20:20:49.636Z,39.15
2022-10-23T20:23:19.654Z,36.92
2022-10-23T20:25:49.730Z,36.90
2022-10-23T20:28:20.567Z,37.90
2022-10-23T20:30:50.806Z,37.78
2022-10-23T20:33:20.880Z,37.33
2022-10-23T20:35:51.050Z,36.22
2022-10-23T20:38:21.303Z,38.13
2022-10-23T20:40:51.508Z,37.03
2022-10-23T20:43:22.136Z,40.65
2022-10-23T20:45:52.198Z,42.72
2022-10-23T20:48:22.466Z,41.40
2022-10-23T20:50:52.770Z,39.90
2022-10-23T20:53:23.167Z,42.72
2022-10-23T20:55:53.227Z,42.72
2022-10-23T20:58:23.270Z,43.10
2022-10-23T21:03:28.621Z,44.08
2022-10-23T21:05:58.992Z,42.53
2022-10-23T21:08:29.040Z,44.55
2022-10-23T21:10:59.294Z,39.53
2022-10-23T21:13:31.263Z,40.42
2022-10-23T21:16:02.137Z,41.50
2022-10-23T21:18:45.401Z,42.00
2022-10-23T21:21:19.041Z,39.67
2022-10-23T21:23:51.949Z,38.42
2022-10-23T21:26:25.067Z,40.47
2022-10-23T21:29:16.914Z,39.58
2022-10-23T21:31:52.585Z,39.38
2022-10-23T21:34:23.563Z,39.67
2022-10-23T21:37:11.883Z,41.72
2022-10-23T21:39:45.147Z,42.25
2022-10-23T21:42:16.761Z,40.67
2022-10-23T21:44:47.215Z,39.35
2022-10-23T21:47:18.472Z,40.97
2022-10-23T21:49:48.524Z,42.65
2022-10-23T21:52:19.842Z,42.75
2022-10-23T21:54:54.870Z,40.60
2022-10-23T21:57:25.499Z,40.67
2022-10-23T21:59:57.284Z,39.78
2022-10-23T22:02:28.011Z,41.45
2022-10-23T22:04:58.324Z,40.25
2022-10-23T22:10:03.578Z,41.17
2022-10-23T22:12:34.114Z,40.78
2022-10-23T22:15:04.590Z,42.20
2022-10-23T22:17:34.939Z,41.65
2022-10-23T22:20:06.017Z,41.00
2022-10-23T22:22:36.227Z,42.25
2022-10-23T22:25:07.265Z,47.70
2022-10-23T22:27:38.923Z,47.90
2022-10-23T22:30:09.254Z,47.30
2022-10-23T22:32:39.384Z,46.90
2022-10-23T22:35:10.074Z,47.20
2022-10-23T22:37:41.203Z,45.53
2022-10-23T22:40:11.843Z,44.10
2022-10-23T22:42:42.024Z,48.40
2022-10-23T22:45:12.847Z,52.10
2022-10-23T22:47:42.924Z,52.00
2022-10-23T22:50:13.350Z,51.28
2022-10-23T22:52:43.797Z,49.03
2022-10-23T22:55:14.496Z,48.80
2022-10-23T22:57:44.798Z,48.38
2022-10-23T23:00:16.599Z,50.10
2022-10-23T23:02:47.012Z,48.50
2022-10-23T23:05:17.340Z,50.25
2022-10-23T23:07:47.453Z,50.58
2022-10-23T23:10:18.033Z,49.85
2022-10-23T23:12:51.730Z,52.03
2022-10-23T23:15:22.335Z,51.78
2022-10-23T23:17:52.621Z,51.33
2022-10-23T23:20:23.101Z,49.30
2022-10-23T23:22:53.611Z,49.70
2022-10-23T23:25:23.921Z,47.55
2022-10-23T23:27:53.966Z,48.58
2022-10-23T23:30:24.333Z,49.35
2022-10-23T23:32:55.009Z,49.70
2022-10-23T23:35:25.352Z,51.90
2022-10-23T23:37:56.087Z,49.75
2022-10-23T23:40:27.478Z,49.42
2022-10-23T23:42:57.523Z,61.45
2022-10-23T23:45:27.681Z,47.13
2022-10-23T23:47:58.919Z,46.92
2022-10-23T23:50:29.549Z,45.10
2022-10-23T23:53:00.416Z,45.95
2022-10-23T23:55:30.927Z,48.75
2022-10-23T23:58:01.039Z,46.95
